Accueil
METAR-TAF:

METAR-TAF

Aéroports :

Mönchengladbach, Allemagne

latitude: 51-13-49N, longitude: 006-30-16E, altitude: 38 m

Observation

Le bulletin a été fait il y a 29 minutes, à 10:20 UTC
Vent 8 kt de sud/sud-ouest, variant entre sud-est et ouest/sud-ouest
Température 11°C
Humidité 76%
Pression 1008 hPa
Visibilité 10 km ou plus
Nuages épars à une hauteur de 2200 ft

METAR: EDLN 221020Z 20008KT 140V250 9999 SCT022 11/07 Q1008

Heure: 11:49 (10:49 UTC)

Prévision

Le bulletin a été fait il y a 2 heures et 49 minutes, à 08:00 UTC
Prévision valable du 22 à 09 UTC au 22 à 18 UTC
Vent 11 kt de sud/sud-ouest
Visibilité 10 km ou plus
Nuages fragmentés à une hauteur de 3000 ft

TAF: EDLN 220800Z 2209/2218 21011KT 9999 BKN030

Observations et prévisions météorologiques de plus de 4000 aéroports (messages METAR et TAF).

Les stations disponibles sont représentées par des disques jaunes et rouges sur la carte.

Passer la souris dessus pour voir le nom de la station.

Cliquer dessus pour voir les observations et prévisions météorologiques.

Pour changer de carte: cliquez sur les boutons verts avec une croix noire pour zoomer, sur le bouton vert avec un tiret pour effectuer un zoom arrière, ou sur les flèches vertes pour les cartes adjacentes.


METAR-TAF: